Terminal Aerodrome Forecast
Issued by NWS

Home | Current Version | Previous Version | Text Only | Print | Product List | Glossary On
Versions: 1 2 3 4 5 6 7 8 9 10 11 12 13
221
FTPA31 PHFO 271126
TAFHTO
TAF
PHTO 271126Z 2712/2812 24006KT P6SM VCSH SCT025 BKN045
     FM272000 12011KT P6SM VCSH SCT025 BKN045
     FM280500 24005KT P6SM VCSH SCT025 BKN045=

USA.gov is the U.S. government's official web portal to all federal, state and local government web resources and services.